Time;durP1;ratioP1;P1;durP2;ratioP2;P2;SDS_P1;SDS_P2;PMS_P1;PMS_P2;Temp;Humidity;BMP_temperature;BMP_pressure;BME280_temperature;BME280_humidity;BME280_pressure;Samples;Min_cycle;Max_cycle;Signal;HPM_P1;HPM_P2
2021/04/06 00:01:35;;;;;;;5.13;2.20;;;;;;;-0.01;66.25;98517.38;5088373;28;42409;-73
2021/04/06 00:04:07;;;;;;;4.00;1.93;;;;;;;-0.01;66.11;98516.53;5088647;28;42349;-73
2021/04/06 00:06:37;;;;;;;3.20;1.53;;;;;;;-0.04;66.51;98512.25;5092433;28;40549;-73
2021/04/06 00:09:07;;;;;;;3.43;1.70;;;;;;;-0.06;66.44;98511.44;5090414;28;42429;-73
2021/04/06 00:11:37;;;;;;;3.50;1.73;;;;;;;-0.16;66.27;98498.69;5092452;28;43241;-73
2021/04/06 00:14:05;;;;;;;2.77;1.60;;;;;;;-0.08;66.44;98504.56;5092535;28;42074;-73
2021/04/06 00:16:33;;;;;;;1.73;1.40;;;;;;;-0.06;66.36;98511.44;5091116;28;39704;-74
2021/04/06 00:19:01;;;;;;;3.27;2.03;;;;;;;-0.06;66.14;98513.19;5091127;28;42200;-73
2021/04/06 00:21:28;;;;;;;2.73;1.50;;;;;;;-0.10;66.31;98509.78;5092236;28;42626;-74
2021/04/06 00:23:56;;;;;;;6.17;1.80;;;;;;;-0.09;66.32;98503.69;5093656;28;42168;-74
2021/04/06 00:26:24;;;;;;;4.97;1.70;;;;;;;-0.13;66.28;98498.63;5091859;28;39788;-74
2021/04/06 00:28:53;;;;;;;4.53;1.77;;;;;;;-0.30;66.63;98473.03;5094254;28;41362;-73
2021/04/06 00:31:21;;;;;;;6.53;1.90;;;;;;;-0.17;66.45;98489.19;5091777;28;42686;-74
2021/04/06 00:33:51;;;;;;;3.37;1.83;;;;;;;-0.41;66.39;98449.88;5093880;28;42354;-74
2021/04/06 00:36:25;;;;;;;3.03;1.60;;;;;;;-0.16;66.48;98496.94;5092176;28;38454;-73
2021/04/06 00:38:54;;;;;;;2.73;1.43;;;;;;;-0.20;66.24;98494.44;5092458;28;42392;-74
2021/04/06 00:41:22;;;;;;;4.87;1.53;;;;;;;-0.34;66.17;98471.38;5091364;28;42755;-74
2021/04/06 00:43:52;;;;;;;5.93;1.97;;;;;;;-0.21;66.14;98492.75;5092033;28;42095;-73
2021/04/06 00:46:24;;;;;;;4.47;1.80;;;;;;;-0.23;66.04;98489.31;5091957;28;39020;-74
2021/04/06 00:49:04;;;;;;;3.67;1.63;;;;;;;-0.27;66.02;98485.09;5077333;28;40798;-74
2021/04/06 00:51:38;;;;;;;2.43;1.80;;;;;;;-0.32;66.22;98479.16;5091520;28;43178;-74
2021/04/06 00:54:07;;;;;;;3.60;1.50;;;;;;;-0.33;66.59;98477.44;5092105;28;42015;-74
2021/04/06 00:56:36;;;;;;;4.40;2.10;;;;;;;-0.36;66.66;98476.63;5091871;28;39699;-74
2021/04/06 00:59:06;;;;;;;3.23;1.47;;;;;;;-0.34;66.53;98481.78;5075122;28;41964;-74
2021/04/06 01:01:36;;;;;;;2.93;1.60;;;;;;;-0.37;66.40;98477.50;5093218;28;42445;-73
2021/04/06 01:04:06;;;;;;;3.07;1.63;;;;;;;-0.37;66.79;98471.44;5091129;28;42837;-74
2021/04/06 01:06:34;;;;;;;3.43;2.10;;;;;;;-0.38;66.65;98465.41;5093137;28;39951;-73
2021/04/06 01:09:02;;;;;;;3.00;1.57;;;;;;;-0.38;66.66;98464.56;5091958;28;41073;-73
2021/04/06 01:11:29;;;;;;;2.07;1.57;;;;;;;-0.41;66.64;98459.44;5093090;28;43335;-74
2021/04/06 01:14:00;;;;;;;6.30;1.90;;;;;;;-0.39;66.89;98457.66;5092974;28;42098;-74
2021/04/06 01:16:29;;;;;;;1.77;1.63;;;;;;;-0.38;66.67;98460.22;5091775;28;40600;-74
2021/04/06 01:18:56;;;;;;;7.87;2.00;;;;;;;-0.38;66.67;98455.00;5091766;28;41527;-73
2021/04/06 01:21:24;;;;;;;3.63;1.57;;;;;;;-0.37;66.67;98461.03;5092739;28;42563;-74
2021/04/06 01:23:51;;;;;;;4.43;1.63;;;;;;;-0.59;66.60;98410.47;5092738;28;41838;-74
2021/04/06 01:26:19;;;;;;;3.57;1.53;;;;;;;-0.34;66.47;98454.91;5091206;28;40499;-73
2021/04/06 01:28:46;;;;;;;2.50;1.40;;;;;;;-0.34;66.47;98442.75;5091766;28;40856;-73
2021/04/06 01:31:14;;;;;;;4.60;1.53;;;;;;;-0.46;66.38;98428.31;5092611;28;42799;-73
2021/04/06 01:33:43;;;;;;;4.30;2.00;;;;;;;-0.34;65.89;98449.72;5091951;28;42252;-74
2021/04/06 01:36:10;;;;;;;4.33;1.63;;;;;;;-0.32;65.99;98447.94;5092429;28;39909;-74
2021/04/06 01:38:40;;;;;;;2.93;1.67;;;;;;;-0.29;65.95;98447.88;5093180;28;41767;-73
2021/04/06 01:41:09;;;;;;;3.63;1.27;;;;;;;-0.31;66.10;98439.25;5092547;28;42905;-73
2021/04/06 01:43:39;;;;;;;4.27;2.30;;;;;;;-0.31;66.06;98449.66;5090783;28;42219;-74
2021/04/06 01:46:14;;;;;;;5.47;2.13;;;;;;;-0.42;65.82;98431.72;5092663;28;39592;-73
2021/04/06 01:48:42;;;;;;;4.47;1.50;;;;;;;-0.21;65.78;98456.31;5091125;28;42500;-74
2021/04/06 01:51:10;;;;;;;3.50;1.53;;;;;;;-0.12;65.69;98450.84;5091883;28;42688;-73
2021/04/06 01:53:37;;;;;;;5.47;1.60;;;;;;;0.00;65.45;98455.78;5092044;28;41939;-73
2021/04/06 01:56:08;;;;;;;6.80;1.90;;;;;;;0.14;65.29;98448.41;5090865;28;40671;-74
2021/04/06 01:58:38;;;;;;;5.23;1.93;;;;;;;0.22;65.13;98443.88;5090705;28;42417;-73
2021/04/06 02:01:14;;;;;;;7.53;2.00;;;;;;;0.23;64.49;98432.56;5090093;28;42429;-73
2021/04/06 02:03:46;;;;;;;4.43;1.40;;;;;;;0.23;64.77;98432.56;5091193;28;41242;-74
2021/04/06 02:06:14;;;;;;;3.20;1.63;;;;;;;0.22;64.20;98440.41;5092157;28;40649;-73
2021/04/06 02:08:49;;;;;;;4.77;1.90;;;;;;;0.19;64.76;98424.88;5092324;28;41490;-73
2021/04/06 02:11:18;;;;;;;5.23;1.60;;;;;;;0.22;64.06;98430.84;5069900;28;43513;-73
2021/04/06 02:13:46;;;;;;;5.17;1.63;;;;;;;0.39;64.28;98432.09;5070608;28;41217;-73
2021/04/06 02:16:13;;;;;;;4.67;1.80;;;;;;;0.49;63.64;98428.38;5086840;28;39951;-74
2021/04/06 02:18:40;;;;;;;6.97;1.80;;;;;;;0.46;63.46;98402.41;5071718;28;41288;-74
2021/04/06 02:21:08;;;;;;;3.50;1.50;;;;;;;0.59;63.57;98424.59;5086781;28;42736;-74
2021/04/06 02:23:40;;;;;;;6.67;1.63;;;;;;;0.67;63.25;98439.09;5070024;28;42275;-74
2021/04/06 02:26:08;;;;;;;4.77;1.50;;;;;;;0.72;62.87;98431.16;5069925;28;40605;-74
2021/04/06 02:28:35;;;;;;;5.37;1.67;;;;;;;0.77;62.71;98436.19;5071391;28;41329;-74
2021/04/06 02:31:04;;;;;;;5.17;1.50;;;;;;;0.81;62.33;98436.06;5071031;28;42493;-73
2021/04/06 02:33:33;;;;;;;6.87;1.50;;;;;;;0.85;62.32;98429.88;5070071;28;42196;-73
2021/04/06 02:36:02;;;;;;;3.83;1.40;;;;;;;0.91;62.19;98447.94;5071402;28;39951;-73
2021/04/06 02:38:30;;;;;;;5.03;1.60;;;;;;;0.98;62.04;98454.69;5071210;28;41618;-73
2021/04/06 02:41:08;;;;;;;4.50;1.60;;;;;;;1.02;61.96;98440.63;5071076;28;42794;-74
2021/04/06 02:43:42;;;;;;;3.93;1.43;;;;;;;1.06;61.47;98441.41;5071380;28;42211;-74
2021/04/06 02:46:12;;;;;;;6.40;2.10;;;;;;;1.10;61.75;98450.84;5070933;28;40627;-74
2021/04/06 02:48:39;;;;;;;5.83;1.40;;;;;;;1.16;61.79;98448.03;5070034;28;40883;-74
2021/04/06 02:51:08;;;;;;;4.80;1.73;;;;;;;1.18;61.61;98441.00;5071124;28;42861;-74
2021/04/06 02:53:38;;;;;;;4.43;1.50;;;;;;;1.15;61.72;98441.09;5086711;28;41909;-74
2021/04/06 02:56:06;;;;;;;5.93;1.73;;;;;;;1.23;60.89;98448.69;5069538;28;40584;-74
2021/04/06 02:58:38;;;;;;;5.10;1.77;;;;;;;1.26;61.12;98435.53;5069897;28;41378;-74
2021/04/06 03:01:14;;;;;;;3.50;1.40;;;;;;;1.24;61.26;98419.09;5069092;28;42539;-74
2021/04/06 03:03:41;;;;;;;3.97;1.60;;;;;;;1.19;61.26;98421.00;5070347;28;40855;-74
2021/04/06 03:06:10;;;;;;;3.13;1.37;;;;;;;1.21;61.29;98424.41;5069259;28;40433;-74
2021/04/06 03:08:39;;;;;;;3.20;1.67;;;;;;;1.27;61.43;98424.19;5069451;28;41860;-74
2021/04/06 03:11:08;;;;;;;3.70;1.40;;;;;;;1.29;61.34;98422.41;5068306;28;42667;-74
2021/04/06 03:13:40;;;;;;;4.30;1.20;;;;;;;1.30;61.07;98419.75;5070877;28;42081;-74
2021/04/06 03:16:09;;;;;;;5.30;1.90;;;;;;;1.28;60.95;98421.56;5070479;28;40397;-74
2021/04/06 03:18:38;;;;;;;4.77;1.20;;;;;;;1.32;61.29;98422.31;5070601;28;42345;-74
2021/04/06 03:21:07;;;;;;;4.07;1.90;;;;;;;1.29;61.51;98419.78;5070523;28;42821;-75
2021/04/06 03:23:35;;;;;;;4.63;1.83;;;;;;;1.27;61.87;98411.16;5070320;28;42950;-73
2021/04/06 03:26:04;;;;;;;3.17;1.30;;;;;;;1.37;61.54;98420.38;5070637;28;40679;-74
2021/04/06 03:28:33;;;;;;;4.03;1.70;;;;;;;1.40;61.38;98415.09;5070786;28;41922;-74
2021/04/06 03:31:06;;;;;;;5.57;2.03;;;;;;;1.39;61.16;98411.63;5068627;28;42688;-74
2021/04/06 03:33:34;;;;;;;2.83;1.33;;;;;;;1.39;61.54;98402.94;5069485;28;42046;-74
2021/04/06 03:36:02;;;;;;;5.97;1.80;;;;;;;1.34;61.13;98403.13;5068920;28;40922;-74
2021/04/06 03:38:29;;;;;;;4.97;1.60;;;;;;;1.38;61.25;98414.28;5051897;28;40589;-74
2021/04/06 03:40:56;;;;;;;6.97;2.50;;;;;;;1.41;61.55;98401.13;5052250;28;41897;-74
2021/04/06 03:43:23;;;;;;;4.53;1.60;;;;;;;1.41;61.09;98406.34;5070402;28;42104;-74
2021/04/06 03:45:55;;;;;;;3.10;2.00;;;;;;;1.45;61.37;98397.53;5069594;28;40058;-74
2021/04/06 03:48:24;;;;;;;5.73;1.70;;;;;;;1.47;60.89;98402.69;5069354;28;40807;-74
2021/04/06 03:50:52;;;;;;;3.10;1.70;;;;;;;1.38;61.36;98382.97;5068519;28;42795;-74
2021/04/06 03:53:22;;;;;;;7.17;1.87;;;;;;;1.35;61.24;98390.91;5085779;28;41140;-74
2021/04/06 03:56:03;;;;;;;6.70;1.80;;;;;;;1.48;61.28;98407.88;5068817;28;39675;-75
2021/04/06 03:58:33;;;;;;;2.10;1.50;;;;;;;1.50;61.32;98399.97;5069693;28;42206;-73
2021/04/06 04:01:01;;;;;;;7.60;1.60;;;;;;;1.50;60.90;98393.00;5085397;28;43274;-74
2021/04/06 04:03:28;;;;;;;6.37;1.87;;;;;;;1.51;60.97;98412.13;5064176;28;42057;-74
2021/04/06 04:05:55;;;;;;;1.87;1.47;;;;;;;1.52;61.19;98404.25;5095192;28;39733;-74
2021/04/06 04:08:23;;;;;;;5.17;1.50;;;;;;;1.53;61.45;98405.94;5096409;28;42624;-74
2021/04/06 04:10:50;;;;;;;6.60;1.80;;;;;;;1.55;61.01;98409.38;5076901;28;41988;-73
2021/04/06 04:13:17;;;;;;;4.70;1.57;;;;;;;1.49;61.34;98395.66;5095604;28;42767;-74
2021/04/06 04:15:44;;;;;;;5.27;1.40;;;;;;;1.62;61.05;98415.22;5094050;28;40082;-75
2021/04/06 04:18:12;;;;;;;3.30;1.60;;;;;;;1.64;61.17;98414.25;5088854;28;41849;-74
2021/04/06 04:20:39;;;;;;;8.23;2.07;;;;;;;1.67;61.46;98398.50;5089772;28;42506;-74
2021/04/06 04:23:06;;;;;;;6.17;2.00;;;;;;;1.63;62.13;98396.91;5089881;28;41957;-74
2021/04/06 04:25:34;;;;;;;4.10;1.90;;;;;;;1.67;62.04;98403.72;5089614;28;41505;-73
2021/04/06 04:28:01;;;;;;;4.83;1.57;;;;;;;1.70;61.68;98393.19;5090349;28;42485;-74
2021/04/06 04:30:41;;;;;;;3.40;1.80;;;;;;;1.72;61.76;98390.53;5088759;28;42470;-74
2021/04/06 04:33:10;;;;;;;6.93;2.17;;;;;;;1.75;61.89;98385.19;5089762;28;42782;-74
2021/04/06 04:35:38;;;;;;;7.23;1.90;;;;;;;1.74;62.21;98378.25;5089453;28;40710;-74
2021/04/06 04:38:05;;;;;;;5.47;2.10;;;;;;;1.74;62.25;98379.09;5090049;28;41568;-74
2021/04/06 04:40:34;;;;;;;6.03;2.07;;;;;;;1.75;62.36;98385.19;5089564;28;43156;-74
2021/04/06 04:43:02;;;;;;;6.57;2.30;;;;;;;1.77;62.48;98384.22;5089637;28;42807;-74
2021/04/06 04:45:29;;;;;;;7.80;1.93;;;;;;;1.82;62.74;98370.19;5088375;28;39882;-74
2021/04/06 04:47:56;;;;;;;6.90;2.57;;;;;;;1.76;63.02;98345.97;5088220;28;42419;-74
2021/04/06 04:50:24;;;;;;;5.77;2.43;;;;;;;1.83;62.99;98356.22;5088111;28;42638;-74
2021/04/06 04:52:51;;;;;;;4.10;2.00;;;;;;;1.84;62.68;98357.94;5091755;28;42215;-74
2021/04/06 04:55:20;;;;;;;9.50;2.47;;;;;;;1.94;62.72;98375.81;5093102;28;39890;-73
2021/04/06 04:57:48;;;;;;;5.00;2.20;;;;;;;2.00;62.50;98382.56;5091755;28;41698;-73
2021/04/06 05:00:17;;;;;;;7.20;2.53;;;;;;;2.04;62.41;98378.94;5093078;28;42914;-73
2021/04/06 05:02:44;;;;;;;6.13;2.20;;;;;;;2.08;62.21;98384.00;5093143;28;42241;-74
2021/04/06 05:05:13;;;;;;;4.53;2.43;;;;;;;2.11;62.03;98383.03;5091716;28;39589;-72
2021/04/06 05:07:41;;;;;;;4.90;1.80;;;;;;;1.78;62.55;98323.28;5074375;28;41130;-74
2021/04/06 05:10:11;;;;;;;7.03;1.97;;;;;;;2.14;62.17;98388.16;5089487;28;41974;-76
2021/04/06 05:12:38;;;;;;;8.23;2.03;;;;;;;2.17;61.97;98390.66;5090403;28;42652;-75
2021/04/06 05:15:09;;;;;;;6.50;2.90;;;;;;;2.21;61.91;98394.88;5090981;28;39919;-73
2021/04/06 05:17:36;;;;;;;6.57;2.43;;;;;;;2.22;61.82;98395.72;5093377;28;41445;-73
2021/04/06 05:20:05;;;;;;;3.23;1.90;;;;;;;2.22;62.30;98391.34;5091313;28;42239;-74
2021/04/06 05:22:32;;;;;;;7.73;2.17;;;;;;;2.31;62.23;98401.47;5092695;28;42673;-73
2021/04/06 05:24:59;;;;;;;7.73;2.10;;;;;;;2.39;62.00;98402.03;5091310;28;39881;-74
2021/04/06 05:27:26;;;;;;;3.43;2.13;;;;;;;2.45;62.11;98401.81;5092880;28;41618;-73
2021/04/06 05:29:53;;;;;;;5.50;2.27;;;;;;;2.50;61.85;98402.47;5091796;28;42700;-73
2021/04/06 05:32:21;;;;;;;5.10;2.23;;;;;;;2.56;61.60;98403.16;5091392;28;41144;-73
2021/04/06 05:34:48;;;;;;;6.77;2.57;;;;;;;2.62;61.17;98411.59;5091392;28;39576;-74
2021/04/06 05:37:15;;;;;;;7.10;2.37;;;;;;;2.66;60.82;98417.59;5092024;28;42535;-73
2021/04/06 05:39:42;;;;;;;4.67;2.20;;;;;;;2.69;60.90;98412.25;5123921;27;42728;-73
2021/04/06 05:42:12;;;;;;;6.60;2.10;;;;;;;2.72;60.85;98417.38;5092512;28;42788;-73
2021/04/06 05:44:41;;;;;;;4.27;2.50;;;;;;;2.77;60.83;98415.41;5091771;28;39924;-73
2021/04/06 05:47:14;;;;;;;3.97;1.93;;;;;;;2.77;60.78;98415.41;5090495;28;42338;-73
2021/04/06 05:49:42;;;;;;;5.10;2.30;;;;;;;2.67;61.20;98393.16;5073254;28;41825;-74
2021/04/06 05:52:09;;;;;;;5.97;2.00;;;;;;;2.79;60.51;98418.81;5087970;28;42871;-73
2021/04/06 05:54:37;;;;;;;7.07;2.43;;;;;;;2.87;60.39;98427.22;5091802;28;40322;-73
2021/04/06 05:57:04;;;;;;;3.77;2.20;;;;;;;2.87;60.47;98414.13;5091037;28;42273;-73
2021/04/06 05:59:31;;;;;;;5.63;2.50;;;;;;;3.04;60.32;98429.19;5091701;28;42602;-73
2021/04/06 06:01:58;;;;;;;6.03;2.27;;;;;;;3.15;60.07;98432.22;5091554;28;42147;-73
2021/04/06 06:04:25;;;;;;;5.77;2.37;;;;;;;3.20;59.88;98436.38;5090780;28;41545;-74
2021/04/06 06:06:54;;;;;;;6.97;2.47;;;;;;;3.24;59.71;98440.56;5083543;28;42449;-72
2021/04/06 06:09:32;;;;;;;6.03;2.17;;;;;;;3.27;59.20;98447.44;5087951;28;42422;-74
2021/04/06 06:12:03;;;;;;;5.30;2.37;;;;;;;3.04;59.18;98416.13;5086002;28;42954;-72
2021/04/06 06:14:33;;;;;;;5.70;2.30;;;;;;;3.17;59.52;98444.34;5090888;28;38980;-72
2021/04/06 06:17:14;;;;;;;6.30;2.07;;;;;;;3.22;59.32;98450.22;5085934;28;41269;-74
2021/04/06 06:19:41;;;;;;;5.43;2.30;;;;;;;3.24;59.68;98443.19;5089758;28;42507;-71
2021/04/06 06:22:11;;;;;;;4.13;2.47;;;;;;;3.25;59.32;98455.34;5089482;28;42334;-72
2021/04/06 06:24:41;;;;;;;4.77;3.00;;;;;;;3.31;59.82;98453.41;5090350;28;39842;-73
2021/04/06 06:27:35;;;;;;;6.50;2.53;;;;;;;3.35;59.94;98454.97;5090034;28;41664;-72
2021/04/06 06:30:24;;;;;;;7.30;2.57;;;;;;;3.37;59.40;98453.16;5074043;28;43031;-72
2021/04/06 06:33:17;;;;;;;7.40;2.83;;;;;;;3.40;59.58;98447.81;5088607;28;42799;-71
2021/04/06 06:35:46;;;;;;;8.90;3.13;;;;;;;3.45;59.32;98451.09;5088670;28;39815;-72
2021/04/06 06:38:15;;;;;;;6.53;2.87;;;;;;;3.58;59.15;98454.94;5089107;28;41701;-72
2021/04/06 06:40:43;;;;;;;6.87;2.53;;;;;;;3.71;58.97;98450.88;5089400;28;43485;-72
2021/04/06 06:43:12;;;;;;;3.53;2.20;;;;;;;3.82;58.75;98440.81;5089435;28;42945;-72
2021/04/06 06:45:40;;;;;;;4.80;3.07;;;;;;;3.92;58.52;98452.63;5089979;28;39860;-72
2021/04/06 06:48:08;;;;;;;3.77;1.97;;;;;;;3.92;58.24;98452.63;5089342;28;42217;-73
2021/04/06 06:50:46;;;;;;;6.17;2.47;;;;;;;4.09;57.93;98453.63;5089312;28;43310;-73
2021/04/06 06:53:30;;;;;;;5.67;2.30;;;;;;;4.28;57.76;98449.31;5067811;28;42287;-73
2021/04/06 06:55:58;;;;;;;6.27;2.30;;;;;;;4.29;57.45;98445.78;5064948;28;40629;-71
2021/04/06 06:58:33;;;;;;;4.73;2.10;;;;;;;4.37;57.30;98456.78;5069482;28;42351;-72
2021/04/06 07:01:00;;;;;;;6.10;2.17;;;;;;;4.39;56.69;98454.94;5077764;28;43486;-72
2021/04/06 07:03:27;;;;;;;5.87;2.47;;;;;;;4.38;56.96;98455.88;5068085;28;41369;-72
2021/04/06 07:05:54;;;;;;;5.70;2.67;;;;;;;4.36;57.28;98452.44;5086243;28;40700;-75
2021/04/06 07:08:36;;;;;;;5.10;2.37;;;;;;;4.33;57.14;98460.44;5085721;28;41723;-74
2021/04/06 07:11:03;;;;;;;6.33;2.60;;;;;;;4.26;57.07;98452.00;5085174;28;43458;-74
2021/04/06 07:13:32;;;;;;;7.30;2.27;;;;;;;4.30;57.47;98464.06;5067091;28;43624;-74
2021/04/06 07:16:00;;;;;;;7.73;2.37;;;;;;;4.30;57.57;98456.22;5066769;28;39953;-73
2021/04/06 07:18:28;;;;;;;5.60;2.47;;;;;;;4.34;57.45;98459.53;5084941;28;41418;-74
2021/04/06 07:20:58;;;;;;;6.57;2.30;;;;;;;4.31;57.39;98457.06;5084588;28;42739;-74
2021/04/06 07:23:35;;;;;;;7.63;2.87;;;;;;;4.45;57.18;98462.53;5085397;28;42195;-74
2021/04/06 07:26:04;;;;;;;4.87;2.57;;;;;;;4.54;57.14;98458.66;5074455;28;41823;-73
2021/04/06 07:28:32;;;;;;;4.47;2.20;;;;;;;4.61;57.45;98460.09;5084721;28;41893;-74
2021/04/06 07:31:02;;;;;;;5.30;2.40;;;;;;;4.56;57.07;98455.06;5083712;28;42166;-75
2021/04/06 07:33:31;;;;;;;5.80;2.60;;;;;;;4.61;56.86;98458.31;5067914;28;41191;-74
2021/04/06 07:36:04;;;;;;;7.27;2.70;;;;;;;4.68;57.20;98465.00;5085709;28;20227;-74
2021/04/06 07:38:34;;;;;;;8.53;2.60;;;;;;;4.76;57.16;98451.53;5086209;28;42093;-74
2021/04/06 07:41:03;;;;;;;4.97;2.27;;;;;;;5.00;56.50;98467.91;5084708;28;42466;-73
2021/04/06 07:43:31;;;;;;;5.17;2.40;;;;;;;5.08;55.39;98455.28;5084256;28;41912;-73
2021/04/06 07:45:58;;;;;;;6.53;2.33;;;;;;;5.29;55.63;98475.28;5083334;28;41407;-72
2021/04/06 07:48:43;;;;;;;5.23;2.93;;;;;;;5.39;55.17;98468.69;5084023;28;41981;-71
2021/04/06 07:51:17;;;;;;;5.17;2.17;;;;;;;5.56;55.22;98482.78;5085182;28;43620;-73
2021/04/06 07:54:01;;;;;;;5.87;2.53;;;;;;;5.53;54.21;98482.91;5084542;28;42944;-72
2021/04/06 07:56:52;;;;;;;5.80;2.60;;;;;;;5.67;54.92;98483.97;5063027;28;39873;-72
2021/04/06 07:59:51;;;;;;;4.27;2.20;;;;;;;5.73;54.76;98469.66;5072224;28;40647;-72
2021/04/06 08:02:42;;;;;;;6.93;2.73;;;;;;;5.91;53.90;98487.19;5084710;28;43400;-73
2021/04/06 08:05:16;;;;;;;6.63;2.63;;;;;;;5.85;53.88;98479.56;5085226;28;43004;-71
2021/04/06 08:07:43;;;;;;;5.67;2.13;;;;;;;6.04;53.56;98488.28;5084973;28;38930;-72
2021/04/06 08:10:47;;;;;;;4.83;2.50;;;;;;;6.42;53.13;98493.38;5083025;28;42129;-73
2021/04/06 08:13:16;;;;;;;5.27;2.33;;;;;;;6.73;52.12;98490.00;5085219;28;43247;-71
2021/04/06 08:15:43;;;;;;;4.77;2.23;;;;;;;6.97;51.47;98501.00;5067070;28;41572;-74
2021/04/06 08:18:14;;;;;;;5.03;2.13;;;;;;;7.43;51.28;98500.19;5085181;28;39662;-72
2021/04/06 08:20:46;;;;;;;4.77;2.23;;;;;;;7.96;49.31;98506.84;5084048;28;42811;-72
2021/04/06 08:23:33;;;;;;;6.13;2.60;;;;;;;8.17;49.10;98513.50;5086109;28;43230;-74
2021/04/06 08:26:00;;;;;;;6.17;2.33;;;;;;;8.15;48.05;98525.97;5068645;28;42110;-74
2021/04/06 08:28:39;;;;;;;6.00;2.63;;;;;;;8.60;47.49;98534.78;5088164;28;40245;-72
2021/04/06 08:31:33;;;;;;;3.67;1.83;;;;;;;8.75;46.97;98525.94;5070310;28;40865;-72
2021/04/06 08:34:29;;;;;;;5.63;2.10;;;;;;;8.68;47.10;98516.69;5089813;28;42331;-73
2021/04/06 08:37:05;;;;;;;5.83;2.27;;;;;;;8.93;45.58;98529.25;5069322;28;42411;-73
2021/04/06 08:39:36;;;;;;;3.00;2.00;;;;;;;9.56;45.40;98523.53;5084014;28;41341;-74
2021/04/06 08:42:06;;;;;;;5.73;2.10;;;;;;;9.62;45.14;98526.66;5089082;28;42466;-73
2021/04/06 08:44:36;;;;;;;7.40;2.50;;;;;;;9.83;44.67;98521.78;5088507;28;43334;-71
2021/04/06 08:47:05;;;;;;;5.17;2.07;;;;;;;10.41;43.57;98536.47;5088141;28;42922;-70
2021/04/06 08:49:41;;;;;;;3.87;1.90;;;;;;;10.60;42.42;98533.47;5087130;28;39744;-72
2021/04/06 08:52:13;;;;;;;5.23;1.70;;;;;;;10.60;42.81;98533.47;5067668;28;42329;-73
2021/04/06 08:54:40;;;;;;;3.47;1.73;;;;;;;10.35;43.31;98536.91;5070301;28;41923;-72
2021/04/06 08:57:09;;;;;;;4.63;1.93;;;;;;;9.94;43.59;98535.16;5085093;28;42052;-73
2021/04/06 08:59:39;;;;;;;3.50;1.97;;;;;;;9.58;44.28;98533.06;5088264;28;41339;-73
2021/04/06 09:02:09;;;;;;;5.97;1.97;;;;;;;9.42;45.17;98532.34;5086447;28;41706;-74
2021/04/06 09:04:38;;;;;;;6.87;2.50;;;;;;;9.45;45.65;98505.72;5089996;28;42483;-71
2021/04/06 09:07:17;;;;;;;7.37;2.40;;;;;;;9.92;45.03;98530.91;5089663;28;41858;-73
2021/04/06 09:09:44;;;;;;;4.30;2.10;;;;;;;10.41;44.57;98529.38;5090040;28;39603;-74
2021/04/06 09:12:13;;;;;;;4.53;1.90;;;;;;;10.92;42.94;98533.91;5092076;28;42474;-75
2021/04/06 09:14:41;;;;;;;5.33;2.23;;;;;;;10.93;42.17;98536.44;5089864;28;41881;-74
2021/04/06 09:17:08;;;;;;;6.27;2.20;;;;;;;10.46;42.83;98501.75;5090728;28;43123;-73
2021/04/06 09:19:37;;;;;;;5.50;2.17;;;;;;;10.26;42.43;98521.66;5090110;28;39609;-73
2021/04/06 09:22:06;;;;;;;8.00;2.57;;;;;;;10.63;42.96;98518.19;5090429;28;41647;-75
2021/04/06 09:24:34;;;;;;;5.37;2.10;;;;;;;11.65;41.04;98526.91;5090019;28;42730;-75
2021/04/06 09:27:02;;;;;;;4.13;2.10;;;;;;;11.51;40.42;98542.94;5073503;28;41154;-71
2021/04/06 09:29:32;;;;;;;7.03;2.23;;;;;;;10.44;43.02;98515.94;5089625;28;41518;-75
2021/04/06 09:32:03;;;;;;;6.27;2.20;;;;;;;9.54;45.27;98515.69;5088615;28;40480;-74
2021/04/06 09:34:33;;;;;;;6.33;2.40;;;;;;;8.75;47.32;98488.97;5091612;28;42567;-74
2021/04/06 09:37:01;;;;;;;7.07;2.27;;;;;;;8.12;48.92;98489.22;5123511;27;42387;-74
2021/04/06 09:39:30;;;;;;;9.27;2.40;;;;;;;7.49;51.18;98478.78;5090276;28;39351;-74
2021/04/06 09:41:58;;;;;;;4.90;2.13;;;;;;;6.89;53.98;98435.59;5090771;28;41522;-73
2021/04/06 09:44:29;;;;;;;10.60;2.63;;;;;;;6.89;55.27;98451.41;5089213;28;42803;-74
2021/04/06 09:47:01;;;;;;;5.50;2.30;;;;;;;7.36;54.55;98445.28;5091219;28;42755;-73
2021/04/06 09:49:30;;;;;;;6.13;2.40;;;;;;;7.97;54.09;98447.06;5088852;28;39735;-73
2021/04/06 09:51:59;;;;;;;6.80;2.40;;;;;;;9.05;51.49;98445.75;5123619;27;42372;-72
2021/04/06 09:54:30;;;;;;;5.80;2.40;;;;;;;10.98;47.79;98469.91;5086102;28;43748;-72
2021/04/06 09:56:59;;;;;;;6.87;2.20;;;;;;;12.71;44.22;98488.06;5091694;28;42030;-71
2021/04/06 09:59:27;;;;;;;5.97;2.50;;;;;;;13.68;42.14;98504.28;5090850;28;39884;-72
2021/04/06 10:01:56;;;;;;;6.67;2.23;;;;;;;14.52;39.88;98513.34;5089718;28;41937;-72
2021/04/06 10:04:36;;;;;;;5.17;2.37;;;;;;;15.62;37.55;98502.00;5089224;28;43359;-74
2021/04/06 10:07:12;;;;;;;5.50;2.20;;;;;;;15.42;35.62;98517.94;5088601;28;41434;-72
2021/04/06 10:09:41;;;;;;;4.17;2.17;;;;;;;14.69;34.45;98497.63;5088865;28;40420;-75
2021/04/06 10:12:10;;;;;;;4.90;1.73;;;;;;;14.15;35.00;98512.84;5089333;28;41505;-76
2021/04/06 10:14:38;;;;;;;4.67;2.10;;;;;;;13.82;35.67;98508.50;5087596;28;43530;-74
2021/04/06 10:17:07;;;;;;;4.23;1.70;;;;;;;13.32;36.69;98507.22;5087290;28;43031;-74
2021/04/06 10:19:37;;;;;;;3.33;2.00;;;;;;;12.28;37.96;98501.94;5090127;28;41397;-74
2021/04/06 10:22:10;;;;;;;4.87;2.07;;;;;;;11.29;40.47;98480.00;5088715;28;41290;-72
2021/04/06 10:24:40;;;;;;;5.00;1.70;;;;;;;11.06;42.46;98463.09;5088145;28;43360;-73
2021/04/06 10:27:15;;;;;;;2.80;1.77;;;;;;;10.98;42.77;98449.56;5090708;28;41626;-73
2021/04/06 10:29:43;;;;;;;4.50;1.60;;;;;;;10.57;42.97;98470.97;5090131;28;40639;-72
2021/04/06 10:32:26;;;;;;;4.50;1.70;;;;;;;9.91;45.64;98458.63;5090116;28;40777;-73
2021/04/06 10:35:03;;;;;;;6.17;1.90;;;;;;;9.17;48.42;98447.63;5088523;28;42385;-72
2021/04/06 10:37:43;;;;;;;5.73;1.97;;;;;;;9.09;48.83;98447.28;5086567;28;41643;-73
2021/04/06 10:40:29;;;;;;;4.63;2.00;;;;;;;12.41;44.50;98452.25;5090512;28;40349;-74
2021/04/06 10:42:58;;;;;;;3.53;1.77;;;;;;;15.07;40.52;98482.81;5089817;28;42186;-73
2021/04/06 10:45:27;;;;;;;3.23;1.73;;;;;;;17.55;36.24;98495.53;5071317;28;41839;-74
2021/04/06 10:48:04;;;;;;;3.10;1.67;;;;;;;18.66;32.97;98523.88;5088736;28;42348;-74
2021/04/06 10:50:35;;;;;;;2.93;1.60;;;;;;;17.16;33.82;98515.41;5089964;28;40507;-74
2021/04/06 10:53:18;;;;;;;4.57;2.17;;;;;;;15.90;35.83;98495.91;5088664;28;41731;-75
2021/04/06 10:55:50;;;;;;;2.27;1.77;;;;;;;16.60;35.70;98492.09;5088314;28;42709;-75
2021/04/06 10:58:22;;;;;;;3.53;1.73;;;;;;;18.47;33.95;98505.22;5089478;28;42093;-74
2021/04/06 11:00:55;;;;;;;4.03;1.90;;;;;;;19.73;31.51;98502.91;5088440;28;39552;-74
2021/04/06 11:03:24;;;;;;;4.63;1.83;;;;;;;20.80;30.78;98494.88;5088709;28;41686;-73
2021/04/06 11:05:53;;;;;;;4.00;1.90;;;;;;;21.72;28.92;98515.06;5089225;28;43069;-72
2021/04/06 11:08:22;;;;;;;3.03;1.90;;;;;;;20.86;27.51;98534.59;5069742;28;41654;-73
2021/04/06 11:10:51;;;;;;;4.20;1.77;;;;;;;20.03;27.30;98520.31;5069535;28;41622;-73
2021/04/06 11:13:18;;;;;;;3.30;1.80;;;;;;;20.23;26.28;98527.09;5085575;28;42242;-74
2021/04/06 11:15:46;;;;;;;3.57;1.50;;;;;;;21.07;27.13;98499.06;5088455;28;42963;-74
2021/04/06 11:18:13;;;;;;;3.17;1.57;;;;;;;22.44;25.99;98505.75;5090158;28;41999;-74
2021/04/06 11:20:41;;;;;;;2.73;1.67;;;;;;;23.58;24.44;98516.41;5089576;28;39798;-74
2021/04/06 11:23:09;;;;;;;3.27;1.50;;;;;;;24.58;21.43;98516.59;5072019;28;41576;-76
2021/04/06 11:25:36;;;;;;;4.27;1.60;;;;;;;25.70;20.74;98525.66;5088402;28;42356;-75
2021/04/06 11:28:08;;;;;;;3.57;1.80;;;;;;;24.34;19.74;98530.50;5088823;28;41034;-71
2021/04/06 11:30:36;;;;;;;3.80;2.67;;;;;;;25.26;20.79;98512.41;5089567;28;39848;-72
2021/04/06 11:33:04;;;;;;;4.57;1.80;;;;;;;25.93;19.50;98500.94;5090396;28;41784;-72
2021/04/06 11:35:32;;;;;;;5.20;1.80;;;;;;;25.97;20.36;98502.19;5089663;28;42644;-71
2021/04/06 11:38:00;;;;;;;2.90;1.50;;;;;;;25.28;20.04;98504.91;5090174;28;42511;-69
2021/04/06 11:40:28;;;;;;;2.70;1.10;;;;;;;25.10;20.30;98491.00;5088668;28;40562;-73
2021/04/06 11:42:56;;;;;;;3.63;1.67;;;;;;;25.05;19.98;98488.06;5090178;28;41541;-73
2021/04/06 11:45:24;;;;;;;3.43;1.90;;;;;;;25.85;19.68;98492.09;5121942;27;42639;-75
2021/04/06 11:47:52;;;;;;;3.13;1.80;;;;;;;25.92;19.87;98485.69;5088678;28;42817;-75
2021/04/06 11:50:20;;;;;;;4.47;1.70;;;;;;;24.49;19.97;98500.66;5089322;28;39976;-73
2021/04/06 11:52:48;;;;;;;3.43;1.80;;;;;;;22.44;21.82;98488.72;5089847;28;41424;-74
2021/04/06 11:55:16;;;;;;;3.80;1.60;;;;;;;20.44;23.78;98487.13;5088966;28;43459;-74